Time;durP1;ratioP1;P1;durP2;ratioP2;P2;SDS_P1;SDS_P2;PMS_P1;PMS_P2;Temp;Humidity;BMP_temperature;BMP_pressure;BME280_temperature;BME280_humidity;BME280_pressure;Samples;Min_cycle;Max_cycle;Signal;HPM_P1;HPM_P2
2022/07/31 00:00:40;;;;;;;8.73;6.20;;;16.60;99.90;;;;;;5000577;28;20026;-89
2022/07/31 00:03:07;;;;;;;7.65;5.30;;;16.60;99.90;;;;;;5000748;28;20048;-92
2022/07/31 00:05:34;;;;;;;7.25;5.50;;;16.70;99.90;;;;;;4996978;28;20030;-90
2022/07/31 00:08:02;;;;;;;10.35;5.45;;;16.70;99.90;;;;;;4997972;28;20052;-88
2022/07/31 00:10:28;;;;;;;8.38;5.75;;;16.70;99.90;;;;;;4997718;28;20037;-93
2022/07/31 00:12:55;;;;;;;10.82;6.15;;;16.70;99.90;;;;;;5005850;28;20052;-89
2022/07/31 00:15:21;;;;;;;9.77;5.80;;;16.70;99.90;;;;;;5015676;28;20124;-86
2022/07/31 00:17:48;;;;;;;9.00;5.20;;;16.70;99.90;;;;;;5012280;28;20026;-88
2022/07/31 00:20:16;;;;;;;14.52;7.60;;;16.70;99.90;;;;;;5019774;28;20022;-86
2022/07/31 00:22:44;;;;;;;12.23;6.55;;;16.70;99.90;;;;;;5002967;28;20061;-86
2022/07/31 00:25:12;;;;;;;11.45;7.50;;;16.70;99.90;;;;;;5019631;28;20466;-88
2022/07/31 00:27:39;;;;;;;12.32;7.28;;;16.70;99.90;;;;;;5015996;28;20022;-86
2022/07/31 00:30:07;;;;;;;8.70;6.80;;;16.80;99.90;;;;;;4995547;28;20749;-86
2022/07/31 00:32:34;;;;;;;10.30;8.18;;;16.70;99.90;;;;;;5021395;28;20030;-85
2022/07/31 00:35:00;;;;;;;11.83;8.47;;;16.70;99.90;;;;;;5019565;28;20170;-86
2022/07/31 00:37:26;;;;;;;12.23;9.05;;;16.70;99.90;;;;;;5004764;28;20021;-86
2022/07/31 00:39:53;;;;;;;14.77;10.60;;;16.70;99.90;;;;;;5021433;28;20028;-86
2022/07/31 00:42:25;;;;;;;12.87;9.33;;;16.70;99.90;;;;;;4997390;28;20045;-87
2022/07/31 00:44:52;;;;;;;16.65;9.23;;;16.70;99.90;;;;;;5012152;28;20108;-86
2022/07/31 00:47:18;;;;;;;17.43;9.53;;;16.70;99.90;;;;;;5010703;28;20036;-87
2022/07/31 00:49:47;;;;;;;16.63;10.52;;;16.70;99.90;;;;;;5002567;28;20322;-86
2022/07/31 00:52:13;;;;;;;15.53;10.17;;;16.60;99.90;;;;;;5014625;28;20055;-84
2022/07/31 00:54:39;;;;;;;22.38;11.55;;;16.70;99.90;;;;;;5031874;28;20029;-84
2022/07/31 00:57:06;;;;;;;14.02;10.43;;;16.70;99.90;;;;;;5013777;28;20052;-87
2022/07/31 00:59:32;;;;;;;18.77;10.50;;;16.70;99.90;;;;;;5013925;28;20033;-86
2022/07/31 01:01:59;;;;;;;15.05;10.02;;;16.70;99.90;;;;;;5031651;28;20072;-87
2022/07/31 01:04:25;;;;;;;18.02;10.23;;;16.70;99.90;;;;;;5013789;28;20049;-87
2022/07/31 01:06:55;;;;;;;16.50;9.88;;;16.80;99.90;;;;;;5013659;28;20025;-85
2022/07/31 01:09:21;;;;;;;14.20;8.52;;;16.80;99.90;;;;;;5079293;23;20057;-56
2022/07/31 01:11:51;;;;;;;18.02;8.85;;;16.80;99.90;;;;;;5070657;28;20756;-56
2022/07/31 01:14:20;;;;;;;13.73;8.45;;;16.90;99.90;;;;;;5070740;28;20024;-56
2022/07/31 01:16:50;;;;;;;14.10;8.98;;;16.90;99.90;;;;;;5070738;28;20024;-56
2022/07/31 01:19:33;;;;;;;14.88;8.27;;;16.90;99.90;;;;;;5070423;28;20016;-56
2022/07/31 01:22:07;;;;;;;14.80;6.85;;;16.90;99.90;;;;;;5069660;28;20036;-57
2022/07/31 01:24:57;;;;;;;7.45;5.13;;;17.00;99.90;;;;;;5068437;28;20418;-57
2022/07/31 01:27:48;;;;;;;8.68;4.07;;;16.90;99.90;;;;;;5068448;28;20511;-57
2022/07/31 01:30:15;;;;;;;6.43;2.35;;;16.90;99.90;;;;;;5068392;28;20074;-56
2022/07/31 01:32:45;;;;;;;3.65;1.83;;;16.90;99.90;;;;;;5068225;28;20032;-57
2022/07/31 01:35:18;;;;;;;1.83;1.17;;;16.90;99.90;;;;;;5070095;28;20088;-56
2022/07/31 01:37:53;;;;;;;4.13;1.20;;;16.90;99.90;;;;;;5070108;28;20652;-56
2022/07/31 01:40:26;;;;;;;1.92;0.98;;;16.90;99.90;;;;;;5070527;28;20040;-57
2022/07/31 01:43:00;;;;;;;1.08;0.68;;;16.90;99.90;;;;;;5052063;28;20040;-56
2022/07/31 01:45:29;;;;;;;1.27;0.60;;;16.90;99.90;;;;;;5070191;28;20086;-59
2022/07/31 01:47:56;;;;;;;1.95;0.70;;;16.90;99.90;;;;;;5070062;28;20427;-59
2022/07/31 01:50:24;;;;;;;1.08;0.50;;;16.90;99.90;;;;;;5069748;28;20025;-58
2022/07/31 01:52:52;;;;;;;1.40;0.40;;;16.80;99.90;;;;;;5070088;28;20683;-58
2022/07/31 01:55:18;;;;;;;0.85;0.30;;;16.80;99.90;;;;;;5069937;28;20032;-57
2022/07/31 01:57:45;;;;;;;1.30;0.63;;;16.80;99.90;;;;;;5070024;28;20016;-59
2022/07/31 02:00:11;;;;;;;0.85;0.40;;;16.70;99.90;;;;;;5069923;28;20078;-58
2022/07/31 02:02:39;;;;;;;1.10;0.27;;;16.70;99.90;;;;;;5070111;28;20059;-58
2022/07/31 02:05:06;;;;;;;2.58;0.47;;;16.70;99.90;;;;;;5069900;28;20622;-57
2022/07/31 02:07:39;;;;;;;1.55;0.30;;;16.60;99.90;;;;;;5069595;28;20641;-57
2022/07/31 02:10:07;;;;;;;0.93;0.32;;;16.70;99.90;;;;;;5069866;28;20059;-58
2022/07/31 02:12:34;;;;;;;1.08;0.40;;;16.60;99.90;;;;;;5069893;28;20032;-57
2022/07/31 02:15:01;;;;;;;;;;;16.60;99.90;;;;;;5070175;28;20613;-57
2022/07/31 02:17:27;;;;;;;0.70;0.35;;;16.60;99.90;;;;;;5069685;28;20351;-57
2022/07/31 02:19:54;;;;;;;2.03;0.57;;;16.60;99.90;;;;;;5069733;28;20032;-57
2022/07/31 02:22:19;;;;;;;2.47;0.65;;;16.60;99.90;;;;;;5069593;28;20056;-57
2022/07/31 02:24:45;;;;;;;1.52;0.50;;;16.60;99.90;;;;;;5051292;28;20028;-57
2022/07/31 02:27:13;;;;;;;2.80;0.30;;;16.50;99.90;;;;;;5069620;28;20083;-57
2022/07/31 02:29:40;;;;;;;0.32;0.30;;;16.50;99.90;;;;;;5069495;28;20075;-57
2022/07/31 02:32:07;;;;;;;1.80;0.50;;;16.50;99.90;;;;;;5069610;28;20105;-57
2022/07/31 02:34:34;;;;;;;2.53;0.53;;;16.50;99.90;;;;;;5069445;28;20136;-57
2022/07/31 02:37:01;;;;;;;1.45;0.60;;;16.40;99.90;;;;;;5069614;28;20686;-57
2022/07/31 02:39:30;;;;;;;6.45;0.50;;;16.40;99.90;;;;;;5069604;28;20024;-56
2022/07/31 02:41:59;;;;;;;1.35;0.50;;;16.40;99.90;;;;;;5069358;28;20079;-56
2022/07/31 02:44:27;;;;;;;1.58;0.50;;;16.30;99.90;;;;;;5071074;28;20032;-57
2022/07/31 02:46:54;;;;;;;0.80;0.40;;;16.30;99.90;;;;;;5073288;28;20119;-56
2022/07/31 02:49:20;;;;;;;1.10;0.60;;;16.20;99.90;;;;;;5073289;28;20028;-56
2022/07/31 02:51:46;;;;;;;1.85;0.50;;;16.30;99.90;;;;;;5073478;28;20032;-56
2022/07/31 02:54:12;;;;;;;1.20;0.50;;;16.30;99.90;;;;;;5073230;28;20036;-57
2022/07/31 02:56:38;;;;;;;2.20;0.60;;;16.20;99.90;;;;;;5071916;28;20027;-56
2022/07/31 02:59:04;;;;;;;0.43;0.40;;;16.30;99.90;;;;;;5073169;28;20103;-56
2022/07/31 03:01:34;;;;;;;1.98;0.45;;;16.30;99.90;;;;;;5072879;28;20150;-56
2022/07/31 03:04:01;;;;;;;1.10;1.00;;;16.20;99.90;;;;;;5073339;28;20115;-56
2022/07/31 03:06:26;;;;;;;3.20;0.90;;;16.20;99.90;;;;;;5054949;28;20388;-56
2022/07/31 03:08:52;;;;;;;1.35;0.38;;;16.30;99.90;;;;;;5072879;28;20051;-56
2022/07/31 03:11:18;;;;;;;0.93;0.52;;;16.30;99.90;;;;;;5073195;28;20029;-56
2022/07/31 03:13:45;;;;;;;1.95;0.90;;;16.20;99.90;;;;;;5072779;28;20048;-56
2022/07/31 03:16:11;;;;;;;1.23;1.00;;;16.20;99.90;;;;;;5072881;28;20033;-56
2022/07/31 03:18:39;;;;;;;2.10;1.40;;;16.20;99.90;;;;;;5072859;28;20039;-56
2022/07/31 03:21:08;;;;;;;1.00;0.90;;;16.20;99.90;;;;;;5073208;28;20055;-56
2022/07/31 03:23:36;;;;;;;1.52;0.75;;;16.20;99.90;;;;;;5072735;28;20068;-56
2022/07/31 03:26:03;;;;;;;2.70;0.70;;;16.10;99.90;;;;;;5072764;28;20033;-56
2022/07/31 03:28:29;;;;;;;1.50;0.75;;;16.10;99.90;;;;;;5073176;28;20127;-56
2022/07/31 03:30:55;;;;;;;2.35;0.80;;;16.20;99.90;;;;;;5072759;28;20382;-59
2022/07/31 03:33:21;;;;;;;5.55;0.93;;;16.10;99.90;;;;;;5072783;28;20028;-56
2022/07/31 03:35:48;;;;;;;1.85;1.00;;;16.10;99.90;;;;;;5072591;28;20032;-56
2022/07/31 03:38:13;;;;;;;1.50;0.95;;;16.00;99.90;;;;;;5072388;28;20028;-56
2022/07/31 03:40:39;;;;;;;0.93;0.77;;;16.10;99.90;;;;;;5072298;28;20103;-56
2022/07/31 03:43:06;;;;;;;3.78;1.40;;;16.00;99.90;;;;;;5072457;28;20040;-56
2022/07/31 03:45:33;;;;;;;1.05;0.90;;;16.00;99.90;;;;;;5072244;28;20369;-56
2022/07/31 03:47:59;;;;;;;;;;;16.00;99.90;;;;;;5072593;28;20025;-56
2022/07/31 03:50:25;;;;;;;1.63;1.02;;;16.00;99.90;;;;;;5072334;28;20594;-56
2022/07/31 03:52:52;;;;;;;2.42;1.20;;;16.00;99.90;;;;;;5072196;28;20025;-57
2022/07/31 03:55:17;;;;;;;1.60;1.00;;;16.00;99.90;;;;;;5071843;28;20495;-56
2022/07/31 03:57:44;;;;;;;1.63;1.05;;;15.90;99.90;;;;;;5071865;28;20032;-57
2022/07/31 04:00:11;;;;;;;1.70;1.20;;;15.90;99.90;;;;;;5071929;28;20029;-57
2022/07/31 04:02:37;;;;;;;5.20;1.75;;;15.90;99.90;;;;;;5071977;28;20043;-56
2022/07/31 04:05:03;;;;;;;2.10;1.40;;;15.80;99.90;;;;;;5071899;28;20017;-56
2022/07/31 04:07:29;;;;;;;1.17;1.00;;;15.90;99.90;;;;;;5053890;28;20028;-56
2022/07/31 04:09:55;;;;;;;2.00;1.33;;;15.90;99.90;;;;;;5069222;28;20044;-57
2022/07/31 04:12:21;;;;;;;2.15;1.10;;;15.70;99.90;;;;;;5070647;28;20422;-57
2022/07/31 04:14:47;;;;;;;3.30;1.42;;;15.70;99.90;;;;;;5070615;28;20032;-57
2022/07/31 04:17:13;;;;;;;2.97;1.08;;;15.70;99.90;;;;;;5070503;28;20035;-57
2022/07/31 04:19:39;;;;;;;1.38;1.05;;;15.70;99.90;;;;;;5070490;28;20028;-57
2022/07/31 04:22:06;;;;;;;2.10;1.20;;;15.70;99.90;;;;;;5070400;28;20042;-57
2022/07/31 04:24:32;;;;;;;1.90;1.20;;;15.70;99.90;;;;;;5070572;28;20043;-57
2022/07/31 04:26:58;;;;;;;2.25;1.33;;;15.70;99.90;;;;;;5070423;28;20175;-56
2022/07/31 04:29:25;;;;;;;1.58;1.13;;;15.70;99.90;;;;;;5070264;28;20035;-57
2022/07/31 04:31:51;;;;;;;1.60;0.98;;;15.70;99.90;;;;;;5070682;28;20066;-56
2022/07/31 04:34:17;;;;;;;2.55;1.17;;;15.70;99.90;;;;;;5070655;28;20475;-56
2022/07/31 04:36:42;;;;;;;1.38;1.15;;;15.70;99.90;;;;;;5052224;28;20525;-56
2022/07/31 04:39:08;;;;;;;2.17;1.30;;;15.70;99.90;;;;;;5070253;28;20032;-57
2022/07/31 04:41:34;;;;;;;1.30;1.02;;;15.60;99.90;;;;;;5068778;28;20083;-57
2022/07/31 04:43:59;;;;;;;2.40;1.25;;;15.70;99.90;;;;;;5052227;28;20115;-56
2022/07/31 04:46:26;;;;;;;3.47;1.83;;;15.70;99.90;;;;;;5070272;28;20024;-56
2022/07/31 04:48:51;;;;;;;2.35;1.40;;;15.70;99.90;;;;;;5070035;28;20368;-57
2022/07/31 04:51:21;;;;;;;2.08;1.33;;;15.60;99.90;;;;;;5070140;28;20051;-57
2022/07/31 04:53:51;;;;;;;2.72;1.55;;;15.60;99.90;;;;;;5070151;28;20067;-57
2022/07/31 04:56:34;;;;;;;2.17;1.63;;;15.60;99.90;;;;;;5069785;28;20029;-57
2022/07/31 04:59:05;;;;;;;2.53;1.95;;;15.60;99.90;;;;;;5069982;28;20036;-56
2022/07/31 05:01:31;;;;;;;3.17;2.17;;;15.50;99.90;;;;;;5069880;28;20031;-57
2022/07/31 05:03:57;;;;;;;3.35;2.20;;;15.50;99.90;;;;;;5069857;28;20549;-57
2022/07/31 05:06:38;;;;;;;3.33;2.40;;;15.50;99.90;;;;;;5069356;28;20028;-57
2022/07/31 05:09:06;;;;;;;6.07;2.10;;;15.50;99.90;;;;;;5030063;28;1144252;-57
2022/07/31 05:11:33;;;;;;;6.47;2.13;;;15.50;99.90;;;;;;5070775;28;20036;-57
2022/07/31 05:14:01;;;;;;;3.85;1.85;;;15.50;99.90;;;;;;5070638;28;20021;-57
2022/07/31 05:16:28;;;;;;;3.38;2.20;;;15.50;99.90;;;;;;5070371;28;20116;-56
2022/07/31 05:18:56;;;;;;;;;;;15.40;99.90;;;;;;5071076;28;20023;-58
2022/07/31 05:21:23;;;;;;;3.33;2.13;;;15.40;99.90;;;;;;5070655;28;19969;-57
2022/07/31 05:23:49;;;;;;;3.78;2.47;;;15.40;99.90;;;;;;5070504;28;20499;-57
2022/07/31 05:26:17;;;;;;;3.53;2.92;;;15.30;99.90;;;;;;5070480;28;20016;-57
2022/07/31 05:28:43;;;;;;;4.95;2.95;;;15.40;99.90;;;;;;5070197;28;20024;-56
2022/07/31 05:31:09;;;;;;;4.47;2.97;;;15.40;99.90;;;;;;5070331;28;20428;-57
2022/07/31 05:33:35;;;;;;;4.45;2.90;;;15.30;99.90;;;;;;5070139;28;20081;-56
2022/07/31 05:36:02;;;;;;;5.53;3.00;;;15.30;99.90;;;;;;5070300;28;20028;-57
2022/07/31 05:38:28;;;;;;;5.70;2.63;;;15.30;99.90;;;;;;5070129;28;20028;-57
2022/07/31 05:40:54;;;;;;;5.22;3.67;;;15.30;99.90;;;;;;5069968;28;20271;-56
2022/07/31 05:43:19;;;;;;;5.72;3.00;;;15.30;99.90;;;;;;5069910;28;20040;-57
2022/07/31 05:45:45;;;;;;;4.07;2.80;;;15.20;99.90;;;;;;5070026;28;20077;-56
2022/07/31 05:48:13;;;;;;;3.67;2.70;;;15.30;99.90;;;;;;5069877;28;20129;-56
2022/07/31 05:50:50;;;;;;;2.70;2.25;;;15.20;99.90;;;;;;5069929;28;20032;-57
2022/07/31 05:53:17;;;;;;;3.72;2.47;;;15.20;99.90;;;;;;5069852;28;20032;-56
2022/07/31 05:55:48;;;;;;;4.47;2.58;;;15.20;99.90;;;;;;5070021;28;20032;-57
2022/07/31 05:58:15;;;;;;;3.25;2.05;;;15.20;99.90;;;;;;5069785;28;20040;-56
2022/07/31 06:00:42;;;;;;;3.15;2.15;;;15.20;99.90;;;;;;5069763;28;20017;-57
2022/07/31 06:03:09;;;;;;;4.45;2.67;;;15.10;99.90;;;;;;5069792;28;20490;-57
2022/07/31 06:05:35;;;;;;;9.45;2.30;;;15.20;99.90;;;;;;5069806;28;20020;-57
2022/07/31 06:08:01;;;;;;;3.50;2.50;;;15.10;99.90;;;;;;5069805;28;20046;-57
2022/07/31 06:10:27;;;;;;;6.13;2.65;;;15.10;99.90;;;;;;5069901;28;20514;-56
2022/07/31 06:12:53;;;;;;;3.63;2.58;;;15.10;99.90;;;;;;5069843;28;20052;-58
2022/07/31 06:15:19;;;;;;;5.78;2.60;;;15.10;99.90;;;;;;5051607;28;20025;-57
2022/07/31 06:17:45;;;;;;;4.07;2.95;;;15.10;99.90;;;;;;5069502;28;20372;-58
2022/07/31 06:20:11;;;;;;;6.03;2.30;;;15.20;99.90;;;;;;5069039;28;20070;-59
2022/07/31 06:22:38;;;;;;;6.28;3.50;;;15.10;99.90;;;;;;5069675;28;20093;-58
2022/07/31 06:25:05;;;;;;;5.03;2.63;;;15.10;99.90;;;;;;5069630;28;20020;-58
2022/07/31 06:27:31;;;;;;;4.35;2.42;;;15.20;99.90;;;;;;5069651;28;20036;-58
2022/07/31 06:29:57;;;;;;;5.00;3.08;;;15.20;99.90;;;;;;5069550;28;20029;-59
2022/07/31 06:32:23;;;;;;;6.35;3.15;;;15.10;99.90;;;;;;5069560;28;20036;-58
2022/07/31 06:34:49;;;;;;;6.00;2.70;;;15.20;99.90;;;;;;5069815;28;20112;-59
2022/07/31 06:37:14;;;;;;;5.75;2.45;;;15.10;99.90;;;;;;5069683;28;20039;-59
2022/07/31 06:39:40;;;;;;;5.10;2.50;;;15.10;99.90;;;;;;5069486;28;20028;-58
2022/07/31 06:42:06;;;;;;;6.10;2.72;;;15.10;99.90;;;;;;5069196;28;20033;-58
2022/07/31 06:44:32;;;;;;;4.40;2.85;;;15.10;99.90;;;;;;5069268;28;20032;-58
2022/07/31 06:46:58;;;;;;;6.20;3.38;;;15.10;99.90;;;;;;5069594;28;20035;-59
2022/07/31 06:49:25;;;;;;;5.50;2.30;;;15.10;99.90;;;;;;5069656;28;20029;-57
2022/07/31 06:51:51;;;;;;;7.32;2.80;;;15.00;99.90;;;;;;5069454;28;20035;-56
2022/07/31 06:54:17;;;;;;;5.03;2.65;;;15.00;99.90;;;;;;5069399;28;20043;-56
2022/07/31 06:56:43;;;;;;;4.03;2.15;;;15.00;99.90;;;;;;5069540;28;20025;-56
2022/07/31 06:59:09;;;;;;;4.47;2.65;;;15.00;99.90;;;;;;5069158;28;20122;-56
2022/07/31 07:01:34;;;;;;;5.03;2.97;;;14.90;99.90;;;;;;5069316;28;20369;-56
2022/07/31 07:04:01;;;;;;;6.00;2.55;;;15.00;99.90;;;;;;5051170;28;20498;-56
2022/07/31 07:06:27;;;;;;;4.97;2.38;;;15.00;99.90;;;;;;5069177;28;20032;-56
2022/07/31 07:08:53;;;;;;;5.13;2.60;;;15.00;99.90;;;;;;5069630;28;20052;-56
2022/07/31 07:11:19;;;;;;;3.63;2.63;;;15.00;99.90;;;;;;5069341;28;20452;-56
2022/07/31 07:13:45;;;;;;;5.95;2.50;;;14.90;99.90;;;;;;5068905;28;20025;-56
2022/07/31 07:16:11;;;;;;;4.60;2.70;;;14.90;99.90;;;;;;5069030;28;20044;-56
2022/07/31 07:18:37;;;;;;;5.07;2.90;;;14.90;99.90;;;;;;5068827;28;20593;-56
2022/07/31 07:21:03;;;;;;;5.05;2.88;;;15.00;99.90;;;;;;5069134;28;20037;-56
2022/07/31 07:23:29;;;;;;;6.43;3.42;;;15.00;99.90;;;;;;5069111;28;20036;-57
2022/07/31 07:25:55;;;;;;;4.85;2.60;;;15.00;99.90;;;;;;5068909;28;20043;-56
2022/07/31 07:28:21;;;;;;;5.10;3.45;;;15.00;99.90;;;;;;5065374;28;20032;-56
2022/07/31 07:30:47;;;;;;;4.13;2.90;;;15.00;99.90;;;;;;5035090;28;20040;-56
2022/07/31 07:33:12;;;;;;;4.32;2.80;;;15.00;99.90;;;;;;5058561;28;20033;-58
2022/07/31 07:35:41;;;;;;;7.78;3.38;;;15.00;99.90;;;;;;5068360;28;20381;-56
2022/07/31 07:38:07;;;;;;;3.83;2.60;;;15.00;99.90;;;;;;5042195;28;20123;-57
2022/07/31 07:40:33;;;;;;;4.00;2.85;;;14.90;99.90;;;;;;5065272;28;20113;-57
2022/07/31 07:42:58;;;;;;;4.70;2.85;;;15.00;99.90;;;;;;5065074;28;20120;-57
2022/07/31 07:45:24;;;;;;;3.70;2.72;;;15.00;99.90;;;;;;5055867;28;20369;-56
2022/07/31 07:47:50;;;;;;;5.82;3.63;;;15.00;99.90;;;;;;5066832;28;20384;-56
2022/07/31 07:50:16;;;;;;;7.50;3.30;;;15.00;99.90;;;;;;5065665;28;20017;-57
2022/07/31 07:52:42;;;;;;;5.65;3.50;;;15.00;99.90;;;;;;5041430;28;20047;-57
2022/07/31 07:55:08;;;;;;;5.60;3.97;;;15.00;99.90;;;;;;5064416;28;20472;-57
2022/07/31 07:57:35;;;;;;;4.87;3.33;;;15.00;99.90;;;;;;5067449;28;20039;-57
2022/07/31 08:00:09;;;;;;;5.60;3.90;;;15.00;99.90;;;;;;5060222;28;20024;-57
2022/07/31 08:02:35;;;;;;;4.85;3.50;;;15.10;99.90;;;;;;5065367;28;20420;-57
2022/07/31 08:05:01;;;;;;;4.18;3.50;;;15.10;99.90;;;;;;5065023;28;20142;-57
2022/07/31 08:07:35;;;;;;;6.35;3.88;;;15.10;99.90;;;;;;5062457;28;20535;-57
2022/07/31 08:10:01;;;;;;;5.32;3.97;;;15.00;99.90;;;;;;5064830;28;20060;-57
2022/07/31 08:12:27;;;;;;;5.00;3.72;;;15.00;99.90;;;;;;5069501;28;20111;-57
2022/07/31 08:14:53;;;;;;;4.43;3.30;;;15.00;99.90;;;;;;5043045;28;20074;-57
2022/07/31 08:17:19;;;;;;;6.90;3.40;;;15.00;99.90;;;;;;5065838;28;20036;-57
2022/07/31 08:19:45;;;;;;;5.47;3.75;;;15.00;99.90;;;;;;5066432;28;20021;-58
2022/07/31 08:22:11;;;;;;;5.25;3.67;;;15.00;99.90;;;;;;5066904;28;20545;-58
2022/07/31 08:24:37;;;;;;;5.43;4.03;;;15.00;99.90;;;;;;5044159;28;20017;-57
2022/07/31 08:27:24;;;;;;;7.40;4.35;;;15.00;99.90;;;;;;5041474;28;20025;-57
2022/07/31 08:29:50;;;;;;;6.10;4.10;;;15.00;99.90;;;;;;5065315;28;20110;-58
2022/07/31 08:32:16;;;;;;;;;;;15.00;99.90;;;;;;5042522;28;20025;-58
2022/07/31 08:34:42;;;;;;;7.07;3.70;;;15.00;99.90;;;;;;5066495;28;19978;-58
2022/07/31 08:37:08;;;;;;;5.95;3.97;;;15.00;99.90;;;;;;5066489;28;20111;-58
2022/07/31 08:39:35;;;;;;;8.68;3.47;;;15.00;99.90;;;;;;5066772;28;20032;-57
2022/07/31 08:42:08;;;;;;;5.15;3.92;;;15.00;99.90;;;;;;5063585;28;20027;-58
2022/07/31 08:44:41;;;;;;;6.82;3.95;;;15.00;99.90;;;;;;5064451;28;20030;-58
2022/07/31 08:47:08;;;;;;;6.68;4.22;;;15.00;99.90;;;;;;5065784;28;20043;-58
2022/07/31 08:49:42;;;;;;;5.97;3.58;;;15.00;99.90;;;;;;5066143;28;20079;-57
2022/07/31 08:52:10;;;;;;;6.03;3.90;;;15.00;99.90;;;;;;5061552;28;20028;-58
2022/07/31 08:54:35;;;;;;;;;;;15.00;99.90;;;;;;5063703;28;20024;-58
2022/07/31 08:57:02;;;;;;;7.50;4.75;;;15.10;99.90;;;;;;5062822;28;20095;-58
2022/07/31 08:59:29;;;;;;;5.85;3.90;;;15.00;99.90;;;;;;5062341;28;20554;-57
2022/07/31 09:01:58;;;;;;;6.10;3.67;;;15.00;99.90;;;;;;5061012;28;20041;-56
2022/07/31 09:04:24;;;;;;;5.53;3.50;;;15.10;99.90;;;;;;5064184;28;20032;-57
2022/07/31 09:06:50;;;;;;;6.30;3.13;;;15.00;99.90;;;;;;5064131;28;20028;-57
2022/07/31 09:09:19;;;;;;;8.02;3.97;;;15.10;99.90;;;;;;5061347;28;20090;-57
2022/07/31 09:11:52;;;;;;;8.35;4.07;;;15.00;99.90;;;;;;5067806;28;20028;-57
2022/07/31 09:14:29;;;;;;;9.30;3.90;;;15.00;99.90;;;;;;5060967;28;20032;-57
2022/07/31 09:16:55;;;;;;;9.38;4.45;;;15.00;99.90;;;;;;5062193;28;20117;-57
2022/07/31 09:19:23;;;;;;;13.37;5.20;;;15.00;99.90;;;;;;5057583;28;20031;-57
2022/07/31 09:21:51;;;;;;;10.88;5.15;;;15.10;99.90;;;;;;5052669;28;20285;-58
2022/07/31 09:24:33;;;;;;;11.10;4.32;;;15.10;99.90;;;;;;5032114;28;20033;-57
2022/07/31 09:27:09;;;;;;;8.63;3.63;;;15.10;99.90;;;;;;5065440;28;20024;-57
2022/07/31 09:29:41;;;;;;;8.07;3.85;;;15.10;99.90;;;;;;5060436;28;20587;-58
2022/07/31 09:32:24;;;;;;;6.95;4.35;;;15.10;99.90;;;;;;5060783;28;20025;-58
2022/07/31 09:34:50;;;;;;;6.43;4.18;;;15.10;99.90;;;;;;5067012;28;20103;-58
2022/07/31 09:37:18;;;;;;;5.78;4.03;;;15.10;99.90;;;;;;5070229;28;20128;-58
2022/07/31 09:39:51;;;;;;;9.23;4.47;;;15.10;99.90;;;;;;5070289;28;20025;-58
2022/07/31 09:42:18;;;;;;;6.60;3.97;;;15.20;99.90;;;;;;5070233;28;20033;-57
2022/07/31 09:44:45;;;;;;;9.40;4.85;;;15.20;99.90;;;;;;5069909;28;20031;-57
2022/07/31 09:47:25;;;;;;;8.05;4.60;;;15.20;99.90;;;;;;5068918;28;20379;-58
2022/07/31 09:49:59;;;;;;;9.63;5.25;;;15.20;99.90;;;;;;5049817;28;20029;-56
2022/07/31 09:52:27;;;;;;;10.57;4.35;;;15.20;99.90;;;;;;5053147;28;20023;-56
2022/07/31 09:55:09;;;;;;;17.25;7.15;;;15.20;99.90;;;;;;5064754;28;20032;-57
2022/07/31 09:57:36;;;;;;;16.23;5.78;;;15.20;99.90;;;;;;5064815;28;20032;-58
2022/07/31 10:00:05;;;;;;;8.60;5.20;;;15.20;99.90;;;;;;5049860;28;20048;-58
2022/07/31 10:02:32;;;;;;;10.98;4.75;;;15.20;99.90;;;;;;5049825;28;20461;-57
2022/07/31 10:04:58;;;;;;;7.80;5.15;;;15.30;99.90;;;;;;5049889;28;20029;-58
2022/07/31 10:07:26;;;;;;;8.40;6.03;;;15.30;99.90;;;;;;5049919;28;20032;-58
2022/07/31 10:09:56;;;;;;;6.32;4.68;;;15.30;99.90;;;;;;5049041;28;20087;-57
2022/07/31 10:12:27;;;;;;;21.85;15.00;;;15.30;99.90;;;;;;5013334;28;20056;-57
2022/07/31 10:14:58;;;;;;;8.60;5.93;;;15.30;99.90;;;;;;5023484;28;20033;-57
2022/07/31 10:17:28;;;;;;;9.45;5.40;;;15.30;99.90;;;;;;5048078;28;20522;-58
2022/07/31 10:20:01;;;;;;;7.28;4.88;;;15.30;99.90;;;;;;5048425;28;20032;-57
2022/07/31 10:22:31;;;;;;;6.32;4.25;;;15.40;99.90;;;;;;5030551;28;20025;-58
2022/07/31 10:25:00;;;;;;;7.68;4.45;;;15.40;99.90;;;;;;5048072;28;20094;-58
2022/07/31 10:27:27;;;;;;;7.00;4.55;;;15.40;99.90;;;;;;5014262;28;20033;-57
2022/07/31 10:29:53;;;;;;;7.55;4.15;;;15.40;99.90;;;;;;5048463;28;20075;-57
2022/07/31 10:32:19;;;;;;;7.93;4.72;;;15.40;99.90;;;;;;5048531;28;20021;-58
2022/07/31 10:34:45;;;;;;;6.90;4.95;;;15.40;99.90;;;;;;5048252;28;20071;-57
2022/07/31 10:37:44;;;;;;;6.15;4.50;;;15.40;99.90;;;;;;5045570;28;20036;-56
2022/07/31 10:40:22;;;;;;;7.60;5.03;;;15.50;99.90;;;;;;5048044;28;20409;-57
2022/07/31 10:42:51;;;;;;;;;;;15.40;99.90;;;;;;5048679;28;20040;-57
2022/07/31 10:45:25;;;;;;;9.48;5.05;;;15.50;99.90;;;;;;5030268;28;20291;-57
2022/07/31 10:47:56;;;;;;;21.67;15.95;;;15.50;99.90;;;;;;5047940;28;20116;-55
2022/07/31 10:50:25;;;;;;;11.75;6.95;;;15.60;99.90;;;;;;5030179;28;20021;-56
2022/07/31 10:52:53;;;;;;;9.40;5.75;;;15.60;99.90;;;;;;5047890;28;20067;-55
2022/07/31 10:55:22;;;;;;;6.95;4.55;;;15.60;99.90;;;;;;5029782;28;20017;-56
2022/07/31 10:57:48;;;;;;;10.05;4.30;;;15.60;99.90;;;;;;5047494;28;20024;-55
2022/07/31 11:00:17;;;;;;;6.43;4.60;;;15.60;99.90;;;;;;5047866;28;20025;-55
2022/07/31 11:02:44;;;;;;;9.23;4.88;;;15.60;99.90;;;;;;5048323;28;20205;-56
2022/07/31 11:05:13;;;;;;;7.28;4.43;;;15.50;99.90;;;;;;5049149;28;20036;-56
2022/07/31 11:07:40;;;;;;;6.03;4.10;;;15.50;99.90;;;;;;5035591;28;20060;-56
2022/07/31 11:10:20;;;;;;;7.93;5.05;;;15.60;99.90;;;;;;5061290;28;20035;-57
2022/07/31 11:13:03;;;;;;;6.43;4.50;;;15.60;99.90;;;;;;5061737;28;20060;-57
2022/07/31 11:15:30;;;;;;;9.52;4.90;;;15.60;99.90;;;;;;5061579;28;20167;-57
2022/07/31 11:17:56;;;;;;;12.43;5.70;;;15.60;99.90;;;;;;5061548;28;20024;-57
2022/07/31 11:20:30;;;;;;;8.13;5.45;;;15.50;99.90;;;;;;5061297;28;20471;-56
2022/07/31 11:23:06;;;;;;;12.57;5.95;;;15.60;99.90;;;;;;5061250;28;20045;-56
2022/07/31 11:25:34;;;;;;;12.18;5.53;;;15.60;99.90;;;;;;5059255;28;20111;-58
2022/07/31 11:28:17;;;;;;;8.85;5.28;;;15.60;99.90;;;;;;5066596;28;20082;-58
2022/07/31 11:31:04;;;;;;;9.68;4.75;;;15.60;99.90;;;;;;5072511;28;20030;-57
2022/07/31 11:33:41;;;;;;;10.30;5.53;;;15.60;99.90;;;;;;5061442;28;20382;-55
2022/07/31 11:36:15;;;;;;;8.05;5.28;;;15.60;99.90;;;;;;5062220;28;20040;-57
2022/07/31 11:38:45;;;;;;;7.93;5.15;;;15.60;99.90;;;;;;5061450;28;20404;-57
2022/07/31 11:41:12;;;;;;;8.48;5.32;;;15.60;99.90;;;;;;5061119;28;20044;-56
2022/07/31 11:43:43;;;;;;;6.72;4.80;;;15.60;99.90;;;;;;5062219;28;20479;-56
2022/07/31 11:46:08;;;;;;;9.00;4.90;;;15.70;99.90;;;;;;5061708;28;20032;-56
2022/07/31 11:48:37;;;;;;;7.78;4.70;;;15.70;99.90;;;;;;5063469;28;20395;-57
2022/07/31 11:51:04;;;;;;;8.30;4.80;;;15.70;99.90;;;;;;5063584;28;20036;-56
2022/07/31 11:53:30;;;;;;;7.72;5.00;;;15.70;99.90;;;;;;5061403;28;20502;-55
2022/07/31 11:55:59;;;;;;;9.70;4.80;;;15.70;99.90;;;;;;5060654;28;20025;-56
2022/07/31 11:58:28;;;;;;;7.10;5.35;;;15.80;99.90;;;;;;5061516;28;20525;-54
2022/07/31 12:00:59;;;;;;;8.48;5.32;;;15.80;99.90;;;;;;5063276;28;20438;-56
2022/07/31 12:03:44;;;;;;;8.73;5.30;;;15.90;99.90;;;;;;5061698;28;20044;-56
2022/07/31 12:06:10;;;;;;;12.55;5.82;;;15.90;99.90;;;;;;5062087;28;20060;-57
2022/07/31 12:08:37;;;;;;;19.25;5.90;;;15.90;99.90;;;;;;5068770;28;20095;-56
2022/07/31 12:11:04;;;;;;;9.07;5.85;;;16.00;99.90;;;;;;5079732;28;20475;-55
2022/07/31 12:13:31;;;;;;;7.72;5.80;;;16.00;99.90;;;;;;5081043;28;20032;-56
2022/07/31 12:16:02;;;;;;;11.07;6.68;;;16.00;99.90;;;;;;5081843;28;20028;-56
2022/07/31 12:18:29;;;;;;;10.98;6.53;;;16.10;99.90;;;;;;5080203;28;20482;-56
2022/07/31 12:21:03;;;;;;;9.07;6.13;;;16.10;99.90;;;;;;5062251;28;20017;-56
2022/07/31 12:23:39;;;;;;;12.65;7.15;;;16.20;99.90;;;;;;5079322;28;20325;-56
2022/07/31 12:26:05;;;;;;;10.82;6.93;;;16.30;99.90;;;;;;5078067;28;20107;-56
2022/07/31 12:28:31;;;;;;;9.02;6.35;;;16.30;99.90;;;;;;5079389;28;20247;-56
2022/07/31 12:30:58;;;;;;;15.65;7.32;;;16.40;99.90;;;;;;5080235;28;20024;-56
2022/07/31 12:33:26;;;;;;;12.57;7.25;;;16.50;99.90;;;;;;5088355;28;20035;-55
2022/07/31 12:35:53;;;;;;;54.05;33.13;;;16.50;99.90;;;;;;5078814;28;20036;-56
2022/07/31 12:38:22;;;;;;;20.75;10.10;;;16.60;99.90;;;;;;5078723;28;20016;-56
2022/07/31 12:40:48;;;;;;;21.67;9.00;;;16.70;99.90;;;;;;5080636;28;20028;-56
2022/07/31 12:43:14;;;;;;;24.55;9.32;;;16.80;99.90;;;;;;5079314;28;20042;-56
2022/07/31 12:45:40;;;;;;;23.02;8.93;;;16.80;99.90;;;;;;5081091;28;20471;-56
2022/07/31 12:48:05;;;;;;;25.20;9.65;;;16.90;99.90;;;;;;5063371;28;20028;-56
2022/07/31 12:50:32;;;;;;;22.33;10.05;;;16.90;99.90;;;;;;5080088;28;20030;-57